Startpagina
METAR-TAF:

METAR-TAF

Vliegvelden :

Fairbanks, Alaska, Verenigde Staten

breedte: 64-48-14N, lengte: 147-52-34W, hoogte: 132 m

Actueel weer

Dit bericht is 17 minuten geleden gemaakt, om 14:53 UTC
Weinig wind
Temperatuur 6°C
Vochtigheid 93%
Druk 1023 hPa
Zicht: 16.1 km
Weinig wolken op 8000 ft
Weinig wolken op 18000 ft

METAR: PAFA 191453Z 00000KT 10SM FEW080 FEW180 06/05 A3020 RMK AO2 SLP231 T00610050 55003

Tijdstip: 07:10 (15:10 UTC)

Verwachting

Dit bericht is 3 uur en het 45 minuten geleden gemaakt, om 11:25 UTC
Verwachting geldig van 19 om 12 UTC tot 20 om 18 UTC
Wind 5 kt uit variabele richting
Zicht: 10 km
Weinig wolken op 10000 ft
Verspreide wolken op 25000 ft

TAF: PAFA 191125Z 1912/2018 VRB05KT P6SM FEW100 SCT250

Waarnemingen en weersverwachtingen van meer dan 4000 vliegvelden (METAR en TAF).

De beschikbare stations zijn de gele en rode punten op de kaart.

Ga met uw muis naar het station om de naam te zien.

Klik dan om waarnemingen en weersverwachtingen te zien.

kaart wijzigen: klik op de groene knoppen met een zwart kruis om in te zoomen, op de groene knop met een streepje om uit te zoomen of op de groene pijlen voor aangrenzende kaarten.


METAR-TAF: